sensor_id;sensor_type;location;lat;lon;timestamp;pressure;altitude;pressure_sealevel;temperature;humidity
61394;BME280;48555;50.952;-0.120;2023-06-14T00:02:09;100995.59;;;19.12;28.86
61394;BME280;48555;50.952;-0.120;2023-06-14T00:04:34;101000.50;;;18.98;29.57
61394;BME280;48555;50.952;-0.120;2023-06-14T00:07:00;100998.31;;;18.94;29.05
61394;BME280;48555;50.952;-0.120;2023-06-14T00:09:26;100999.84;;;18.96;29.43
61394;BME280;48555;50.952;-0.120;2023-06-14T00:11:51;100994.94;;;18.75;28.15
61394;BME280;48555;50.952;-0.120;2023-06-14T00:14:17;100998.44;;;18.84;28.89
61394;BME280;48555;50.952;-0.120;2023-06-14T00:16:42;101002.41;;;18.80;28.44
61394;BME280;48555;50.952;-0.120;2023-06-14T00:19:10;100999.91;;;18.78;28.83
61394;BME280;48555;50.952;-0.120;2023-06-14T00:21:37;100992.78;;;18.79;29.05
61394;BME280;48555;50.952;-0.120;2023-06-14T00:24:03;100990.63;;;18.74;29.40
61394;BME280;48555;50.952;-0.120;2023-06-14T00:26:29;101000.91;;;18.77;29.42
61394;BME280;48555;50.952;-0.120;2023-06-14T00:28:55;101000.69;;;18.71;29.39
61394;BME280;48555;50.952;-0.120;2023-06-14T00:31:22;100987.88;;;18.66;29.41
61394;BME280;48555;50.952;-0.120;2023-06-14T00:33:47;100998.16;;;18.69;29.64
61394;BME280;48555;50.952;-0.120;2023-06-14T00:36:12;100995.66;;;18.68;30.02
61394;BME280;48555;50.952;-0.120;2023-06-14T00:38:38;100987.25;;;18.72;30.09
61394;BME280;48555;50.952;-0.120;2023-06-14T00:41:03;100998.25;;;18.77;30.11
61394;BME280;48555;50.952;-0.120;2023-06-14T00:43:28;100995.13;;;18.82;30.05
61394;BME280;48555;50.952;-0.120;2023-06-14T00:45:54;101001.59;;;18.88;30.54
61394;BME280;48555;50.952;-0.120;2023-06-14T00:48:20;100998.81;;;18.89;30.71
61394;BME280;48555;50.952;-0.120;2023-06-14T00:50:45;100996.00;;;18.91;31.16
61394;BME280;48555;50.952;-0.120;2023-06-14T00:53:17;100999.78;;;18.88;31.49
61394;BME280;48555;50.952;-0.120;2023-06-14T00:55:43;100996.16;;;18.89;31.40
61394;BME280;48555;50.952;-0.120;2023-06-14T00:58:09;100998.81;;;18.89;31.85
61394;BME280;48555;50.952;-0.120;2023-06-14T01:00:35;101001.59;;;18.88;32.13
61394;BME280;48555;50.952;-0.120;2023-06-14T01:03:01;100992.31;;;18.83;32.30
61394;BME280;48555;50.952;-0.120;2023-06-14T01:05:26;100999.78;;;18.80;32.11
61394;BME280;48555;50.952;-0.120;2023-06-14T01:11:17;100981.28;;;18.70;32.44
61394;BME280;48555;50.952;-0.120;2023-06-14T01:13:46;100980.78;;;18.67;32.60
61394;BME280;48555;50.952;-0.120;2023-06-14T01:16:11;100975.09;;;18.61;33.15
61394;BME280;48555;50.952;-0.120;2023-06-14T01:18:37;100978.06;;;18.58;33.37
61394;BME280;48555;50.952;-0.120;2023-06-14T01:21:03;100977.41;;;18.56;33.63
61394;BME280;48555;50.952;-0.120;2023-06-14T01:23:33;100981.84;;;18.56;33.49
61394;BME280;48555;50.952;-0.120;2023-06-14T01:26:00;100984.50;;;18.56;34.00
61394;BME280;48555;50.952;-0.120;2023-06-14T01:28:28;100977.03;;;18.51;34.03
61394;BME280;48555;50.952;-0.120;2023-06-14T01:30:59;100982.47;;;18.50;34.39
61394;BME280;48555;50.952;-0.120;2023-06-14T01:33:26;100985.31;;;18.48;34.39
61394;BME280;48555;50.952;-0.120;2023-06-14T01:35:53;100983.09;;;18.44;34.65
61394;BME280;48555;50.952;-0.120;2023-06-14T01:38:22;100981.59;;;18.41;34.90
61394;BME280;48555;50.952;-0.120;2023-06-14T01:40:49;100979.94;;;18.40;34.86
61394;BME280;48555;50.952;-0.120;2023-06-14T01:43:16;100977.78;;;18.35;35.32
61394;BME280;48555;50.952;-0.120;2023-06-14T01:45:44;100978.28;;;18.39;35.14
61394;BME280;48555;50.952;-0.120;2023-06-14T01:48:11;100978.44;;;18.37;35.54
61394;BME280;48555;50.952;-0.120;2023-06-14T01:50:36;100967.69;;;18.39;35.61
61394;BME280;48555;50.952;-0.120;2023-06-14T01:53:02;100970.19;;;18.41;35.71
61394;BME280;48555;50.952;-0.120;2023-06-14T01:55:27;100966.03;;;18.38;36.05
61394;BME280;48555;50.952;-0.120;2023-06-14T01:57:53;100972.69;;;18.42;35.99
61394;BME280;48555;50.952;-0.120;2023-06-14T02:00:19;100973.66;;;18.41;36.30
61394;BME280;48555;50.952;-0.120;2023-06-14T02:02:46;100973.97;;;18.38;36.62
61394;BME280;48555;50.952;-0.120;2023-06-14T02:05:12;100974.91;;;18.29;36.98
61394;BME280;48555;50.952;-0.120;2023-06-14T02:07:37;100964.94;;;18.23;36.75
61394;BME280;48555;50.952;-0.120;2023-06-14T02:10:04;100969.56;;;18.21;37.24
61394;BME280;48555;50.952;-0.120;2023-06-14T02:12:29;100962.75;;;18.18;37.44
61394;BME280;48555;50.952;-0.120;2023-06-14T02:14:55;100959.72;;;18.13;37.74
61394;BME280;48555;50.952;-0.120;2023-06-14T02:17:21;100958.16;;;18.02;37.66
61394;BME280;48555;50.952;-0.120;2023-06-14T02:19:47;100955.69;;;18.01;37.61
61394;BME280;48555;50.952;-0.120;2023-06-14T02:22:12;100961.94;;;18.00;37.83
61394;BME280;48555;50.952;-0.120;2023-06-14T02:24:40;100959.91;;;17.93;37.70
61394;BME280;48555;50.952;-0.120;2023-06-14T02:27:05;100960.72;;;17.94;37.93
61394;BME280;48555;50.952;-0.120;2023-06-14T02:29:31;100957.56;;;17.90;37.48
61394;BME280;48555;50.952;-0.120;2023-06-14T02:31:57;100964.06;;;17.96;37.67
61394;BME280;48555;50.952;-0.120;2023-06-14T02:34:22;100971.03;;;17.97;37.60
61394;BME280;48555;50.952;-0.120;2023-06-14T02:36:47;100963.22;;;17.96;37.54
61394;BME280;48555;50.952;-0.120;2023-06-14T02:39:13;100960.72;;;17.94;37.19
61394;BME280;48555;50.952;-0.120;2023-06-14T02:41:39;100958.06;;;17.94;37.24
61394;BME280;48555;50.952;-0.120;2023-06-14T02:44:05;100963.09;;;17.97;37.36
61394;BME280;48555;50.952;-0.120;2023-06-14T02:46:30;100961.72;;;17.93;37.40
61394;BME280;48555;50.952;-0.120;2023-06-14T02:48:55;100965.66;;;17.89;37.33
61394;BME280;48555;50.952;-0.120;2023-06-14T02:51:21;100969.28;;;17.88;37.72
61394;BME280;48555;50.952;-0.120;2023-06-14T02:53:46;100960.97;;;17.83;37.58
61394;BME280;48555;50.952;-0.120;2023-06-14T02:56:11;100963.06;;;17.79;37.72
61394;BME280;48555;50.952;-0.120;2023-06-14T02:58:37;100964.22;;;17.77;37.87
61394;BME280;48555;50.952;-0.120;2023-06-14T03:01:07;100967.41;;;17.70;37.75
61394;BME280;48555;50.952;-0.120;2023-06-14T03:03:33;100963.22;;;17.60;38.20
61394;BME280;48555;50.952;-0.120;2023-06-14T03:05:58;100964.13;;;17.51;38.05
61394;BME280;48555;50.952;-0.120;2023-06-14T03:08:30;100968.63;;;17.40;38.71
61394;BME280;48555;50.952;-0.120;2023-06-14T03:10:56;100963.41;;;17.31;38.48
61394;BME280;48555;50.952;-0.120;2023-06-14T03:13:22;100961.59;;;17.31;38.56
61394;BME280;48555;50.952;-0.120;2023-06-14T03:15:48;100979.78;;;17.34;39.00
61394;BME280;48555;50.952;-0.120;2023-06-14T03:18:16;100976.72;;;17.39;38.99
61394;BME280;48555;50.952;-0.120;2023-06-14T03:20:42;100979.06;;;17.42;39.35
61394;BME280;48555;50.952;-0.120;2023-06-14T03:23:10;100980.56;;;17.44;39.14
61394;BME280;48555;50.952;-0.120;2023-06-14T03:25:37;100976.94;;;17.45;39.54
61394;BME280;48555;50.952;-0.120;2023-06-14T03:28:06;100976.13;;;17.45;39.16
61394;BME280;48555;50.952;-0.120;2023-06-14T03:30:32;100972.09;;;17.41;39.44
61394;BME280;48555;50.952;-0.120;2023-06-14T03:32:57;100972.44;;;17.28;40.02
61394;BME280;48555;50.952;-0.120;2023-06-14T03:35:26;100982.09;;;17.19;39.79
61394;BME280;48555;50.952;-0.120;2023-06-14T03:37:51;100980.56;;;17.17;40.12
61394;BME280;48555;50.952;-0.120;2023-06-14T03:40:18;100987.66;;;17.16;40.59
61394;BME280;48555;50.952;-0.120;2023-06-14T03:42:43;100985.03;;;17.16;40.37
61394;BME280;48555;50.952;-0.120;2023-06-14T03:45:09;100993.94;;;17.15;40.81
61394;BME280;48555;50.952;-0.120;2023-06-14T03:47:35;100997.41;;;17.16;40.65
61394;BME280;48555;50.952;-0.120;2023-06-14T03:50:02;100988.16;;;17.02;41.26
61394;BME280;48555;50.952;-0.120;2023-06-14T03:52:27;100998.19;;;16.98;41.55
61394;BME280;48555;50.952;-0.120;2023-06-14T03:54:53;100992.50;;;16.93;41.63
61394;BME280;48555;50.952;-0.120;2023-06-14T03:57:19;100990.16;;;16.90;41.99
61394;BME280;48555;50.952;-0.120;2023-06-14T03:59:45;100993.06;;;16.87;42.28
61394;BME280;48555;50.952;-0.120;2023-06-14T04:02:10;100989.22;;;16.82;42.39
61394;BME280;48555;50.952;-0.120;2023-06-14T04:04:37;100997.00;;;16.83;42.41
61394;BME280;48555;50.952;-0.120;2023-06-14T04:07:03;100993.13;;;16.77;43.00
61394;BME280;48555;50.952;-0.120;2023-06-14T04:09:29;100986.44;;;16.64;44.45
61394;BME280;48555;50.952;-0.120;2023-06-14T04:11:54;100987.56;;;16.61;44.55
61394;BME280;48555;50.952;-0.120;2023-06-14T04:14:20;100983.97;;;16.62;44.35
61394;BME280;48555;50.952;-0.120;2023-06-14T04:16:46;100992.44;;;16.66;44.28
61394;BME280;48555;50.952;-0.120;2023-06-14T04:19:12;100987.69;;;16.69;43.92
61394;BME280;48555;50.952;-0.120;2023-06-14T04:21:37;100994.63;;;16.70;44.17
61394;BME280;48555;50.952;-0.120;2023-06-14T04:24:03;100990.88;;;16.73;44.39
61394;BME280;48555;50.952;-0.120;2023-06-14T04:26:28;100997.41;;;16.78;44.19
61394;BME280;48555;50.952;-0.120;2023-06-14T04:28:55;101002.13;;;16.85;44.21
61394;BME280;48555;50.952;-0.120;2023-06-14T04:31:22;101001.16;;;16.86;44.52
61394;BME280;48555;50.952;-0.120;2023-06-14T04:33:50;101001.53;;;16.91;44.54
61394;BME280;48555;50.952;-0.120;2023-06-14T04:36:18;101003.22;;;16.92;44.88
61394;BME280;48555;50.952;-0.120;2023-06-14T04:38:44;101004.19;;;16.91;44.95
61394;BME280;48555;50.952;-0.120;2023-06-14T04:41:10;101007.09;;;16.97;45.05
61394;BME280;48555;50.952;-0.120;2023-06-14T04:43:37;101015.63;;;17.19;45.00
61394;BME280;48555;50.952;-0.120;2023-06-14T04:46:04;101012.75;;;17.58;45.00
61394;BME280;48555;50.952;-0.120;2023-06-14T04:48:31;101010.16;;;17.93;44.64
61394;BME280;48555;50.952;-0.120;2023-06-14T04:50:56;101011.97;;;18.29;44.62
61394;BME280;48555;50.952;-0.120;2023-06-14T04:53:22;101013.88;;;18.63;44.45
61394;BME280;48555;50.952;-0.120;2023-06-14T04:55:48;101020.06;;;18.97;43.92
61394;BME280;48555;50.952;-0.120;2023-06-14T04:58:14;101013.91;;;19.31;43.60
61394;BME280;48555;50.952;-0.120;2023-06-14T05:00:39;101012.88;;;19.66;43.24
61394;BME280;48555;50.952;-0.120;2023-06-14T05:03:04;101026.38;;;19.98;43.06
61394;BME280;48555;50.952;-0.120;2023-06-14T05:05:31;101022.91;;;20.30;42.61
61394;BME280;48555;50.952;-0.120;2023-06-14T05:07:57;101016.75;;;20.62;42.24
61394;BME280;48555;50.952;-0.120;2023-06-14T05:10:22;101012.84;;;20.89;41.65
61394;BME280;48555;50.952;-0.120;2023-06-14T05:12:48;101018.06;;;21.22;41.47
61394;BME280;48555;50.952;-0.120;2023-06-14T05:15:14;101016.44;;;21.52;41.07
61394;BME280;48555;50.952;-0.120;2023-06-14T05:17:40;101015.09;;;21.79;40.93
61394;BME280;48555;50.952;-0.120;2023-06-14T05:20:06;101022.72;;;22.05;40.53
61394;BME280;48555;50.952;-0.120;2023-06-14T05:22:32;101018.06;;;22.30;40.09
61394;BME280;48555;50.952;-0.120;2023-06-14T05:24:57;101020.59;;;22.61;39.59
61394;BME280;48555;50.952;-0.120;2023-06-14T05:27:22;101033.69;;;22.86;39.44
61394;BME280;48555;50.952;-0.120;2023-06-14T05:29:49;101028.09;;;23.10;39.28
61394;BME280;48555;50.952;-0.120;2023-06-14T05:32:15;101022.81;;;23.32;39.10
61394;BME280;48555;50.952;-0.120;2023-06-14T05:35:14;101034.75;;;23.51;38.87
61394;BME280;48555;50.952;-0.120;2023-06-14T05:37:41;101027.69;;;23.79;38.26
61394;BME280;48555;50.952;-0.120;2023-06-14T05:40:07;101023.38;;;24.00;38.44
61394;BME280;48555;50.952;-0.120;2023-06-14T05:42:34;101026.03;;;24.21;38.13
61394;BME280;48555;50.952;-0.120;2023-06-14T05:44:59;101020.00;;;24.41;37.89
61394;BME280;48555;50.952;-0.120;2023-06-14T05:47:25;101021.84;;;24.62;37.51
61394;BME280;48555;50.952;-0.120;2023-06-14T05:49:50;101028.13;;;24.82;37.47
61394;BME280;48555;50.952;-0.120;2023-06-14T05:52:16;101032.19;;;25.06;37.10
61394;BME280;48555;50.952;-0.120;2023-06-14T05:54:41;101026.94;;;25.26;36.92
61394;BME280;48555;50.952;-0.120;2023-06-14T05:57:07;101031.56;;;25.46;36.44
61394;BME280;48555;50.952;-0.120;2023-06-14T05:59:32;101032.63;;;25.65;36.40
61394;BME280;48555;50.952;-0.120;2023-06-14T06:01:57;101036.44;;;25.83;36.42
61394;BME280;48555;50.952;-0.120;2023-06-14T06:04:23;101035.63;;;26.03;35.97
61394;BME280;48555;50.952;-0.120;2023-06-14T06:06:48;101031.09;;;26.17;35.73
61394;BME280;48555;50.952;-0.120;2023-06-14T06:09:14;101030.28;;;26.36;35.47
61394;BME280;48555;50.952;-0.120;2023-06-14T06:11:40;101031.91;;;26.44;35.10
61394;BME280;48555;50.952;-0.120;2023-06-14T06:14:05;101031.53;;;26.60;35.33
61394;BME280;48555;50.952;-0.120;2023-06-14T06:16:31;101037.28;;;26.77;35.02
61394;BME280;48555;50.952;-0.120;2023-06-14T06:18:57;101045.69;;;26.94;34.75
61394;BME280;48555;50.952;-0.120;2023-06-14T06:21:22;101051.00;;;27.21;34.38
61394;BME280;48555;50.952;-0.120;2023-06-14T06:23:48;101046.84;;;27.31;34.32
61394;BME280;48555;50.952;-0.120;2023-06-14T06:26:13;101045.94;;;27.44;34.85
61394;BME280;48555;50.952;-0.120;2023-06-14T06:28:38;101053.47;;;27.67;34.34
61394;BME280;48555;50.952;-0.120;2023-06-14T06:31:04;101054.69;;;27.71;33.72
61394;BME280;48555;50.952;-0.120;2023-06-14T06:33:30;101057.97;;;27.35;34.42
61394;BME280;48555;50.952;-0.120;2023-06-14T06:35:56;101052.84;;;27.20;34.63
61394;BME280;48555;50.952;-0.120;2023-06-14T06:38:21;101057.00;;;27.16;35.04
61394;BME280;48555;50.952;-0.120;2023-06-14T06:40:47;101054.56;;;27.01;35.17
61394;BME280;48555;50.952;-0.120;2023-06-14T06:43:12;101055.88;;;26.65;35.70
61394;BME280;48555;50.952;-0.120;2023-06-14T06:45:43;101055.22;;;26.43;36.41
61394;BME280;48555;50.952;-0.120;2023-06-14T06:48:08;101058.94;;;26.29;36.55
61394;BME280;48555;50.952;-0.120;2023-06-14T06:50:35;101057.78;;;25.64;37.85
61394;BME280;48555;50.952;-0.120;2023-06-14T06:53:01;101061.03;;;25.52;38.39
61394;BME280;48555;50.952;-0.120;2023-06-14T06:55:26;101053.69;;;25.81;37.94
61394;BME280;48555;50.952;-0.120;2023-06-14T06:57:51;101051.94;;;26.21;37.32
61394;BME280;48555;50.952;-0.120;2023-06-14T07:00:19;101050.91;;;26.16;37.63
61394;BME280;48555;50.952;-0.120;2023-06-14T07:02:45;101060.78;;;26.28;37.33
61394;BME280;48555;50.952;-0.120;2023-06-14T07:05:10;101065.34;;;26.35;37.20
61394;BME280;48555;50.952;-0.120;2023-06-14T07:07:35;101060.38;;;26.32;37.34
61394;BME280;48555;50.952;-0.120;2023-06-14T07:10:01;101063.28;;;26.30;37.48
61394;BME280;48555;50.952;-0.120;2023-06-14T07:12:29;101065.97;;;26.37;37.19
61394;BME280;48555;50.952;-0.120;2023-06-14T07:14:56;101064.09;;;26.37;37.67
61394;BME280;48555;50.952;-0.120;2023-06-14T07:17:22;101071.31;;;26.43;37.53
61394;BME280;48555;50.952;-0.120;2023-06-14T07:19:47;101068.41;;;26.38;37.81
61394;BME280;48555;50.952;-0.120;2023-06-14T07:22:12;101076.06;;;26.48;37.81
61394;BME280;48555;50.952;-0.120;2023-06-14T07:24:38;101072.56;;;26.27;38.33
61394;BME280;48555;50.952;-0.120;2023-06-14T07:27:05;101069.44;;;26.44;38.20
61394;BME280;48555;50.952;-0.120;2023-06-14T07:29:31;101069.50;;;26.50;38.04
61394;BME280;48555;50.952;-0.120;2023-06-14T07:31:56;101080.00;;;26.45;38.13
61394;BME280;48555;50.952;-0.120;2023-06-14T07:34:21;101088.03;;;26.79;37.89
61394;BME280;48555;50.952;-0.120;2023-06-14T07:36:47;101084.47;;;27.05;37.80
61394;BME280;48555;50.952;-0.120;2023-06-14T07:39:12;101084.66;;;27.23;36.91
61394;BME280;48555;50.952;-0.120;2023-06-14T07:41:38;101081.84;;;26.91;37.71
61394;BME280;48555;50.952;-0.120;2023-06-14T07:44:03;101085.28;;;27.12;37.10
61394;BME280;48555;50.952;-0.120;2023-06-14T07:46:28;101088.31;;;27.35;37.08
61394;BME280;48555;50.952;-0.120;2023-06-14T07:48:55;101086.22;;;27.44;37.50
61394;BME280;48555;50.952;-0.120;2023-06-14T07:51:20;101082.91;;;27.49;37.15
61394;BME280;48555;50.952;-0.120;2023-06-14T07:53:48;101086.06;;;27.32;37.06
61394;BME280;48555;50.952;-0.120;2023-06-14T07:56:13;101095.19;;;27.25;37.62
61394;BME280;48555;50.952;-0.120;2023-06-14T07:58:38;101088.38;;;27.22;37.08
61394;BME280;48555;50.952;-0.120;2023-06-14T08:01:04;101087.75;;;27.13;37.76
61394;BME280;48555;50.952;-0.120;2023-06-14T08:03:31;101091.69;;;27.11;38.00
61394;BME280;48555;50.952;-0.120;2023-06-14T08:05:57;101079.09;;;27.11;37.64
61394;BME280;48555;50.952;-0.120;2023-06-14T08:08:22;101087.59;;;26.95;38.10
61394;BME280;48555;50.952;-0.120;2023-06-14T08:10:48;101081.03;;;26.64;38.42
61394;BME280;48555;50.952;-0.120;2023-06-14T08:13:13;101087.66;;;26.68;38.77
61394;BME280;48555;50.952;-0.120;2023-06-14T08:15:38;101087.22;;;26.78;38.98
61394;BME280;48555;50.952;-0.120;2023-06-14T08:18:04;101088.03;;;26.92;39.14
61394;BME280;48555;50.952;-0.120;2023-06-14T08:20:29;101091.72;;;27.04;38.82
61394;BME280;48555;50.952;-0.120;2023-06-14T08:22:56;101095.44;;;26.77;38.94
61394;BME280;48555;50.952;-0.120;2023-06-14T08:25:22;101099.13;;;27.02;38.66
61394;BME280;48555;50.952;-0.120;2023-06-14T08:27:48;101097.69;;;27.20;38.93
61394;BME280;48555;50.952;-0.120;2023-06-14T08:30:13;101104.66;;;27.34;38.83
61394;BME280;48555;50.952;-0.120;2023-06-14T08:32:39;101104.63;;;27.40;38.29
61394;BME280;48555;50.952;-0.120;2023-06-14T08:35:04;101110.66;;;27.36;38.31
61394;BME280;48555;50.952;-0.120;2023-06-14T08:37:31;101103.63;;;27.42;38.82
61394;BME280;48555;50.952;-0.120;2023-06-14T08:39:56;101106.03;;;27.56;38.63
61394;BME280;48555;50.952;-0.120;2023-06-14T08:42:23;101104.09;;;27.70;38.45
61394;BME280;48555;50.952;-0.120;2023-06-14T08:44:49;101104.00;;;27.90;38.34
61394;BME280;48555;50.952;-0.120;2023-06-14T08:47:15;101102.66;;;28.13;38.50
61394;BME280;48555;50.952;-0.120;2023-06-14T08:49:45;101100.47;;;28.28;37.75
61394;BME280;48555;50.952;-0.120;2023-06-14T08:52:13;101099.81;;;28.33;37.83
61394;BME280;48555;50.952;-0.120;2023-06-14T08:54:40;101095.78;;;28.48;37.62
61394;BME280;48555;50.952;-0.120;2023-06-14T08:57:11;101100.78;;;28.38;37.44
61394;BME280;48555;50.952;-0.120;2023-06-14T08:59:39;101098.59;;;28.28;37.44
61394;BME280;48555;50.952;-0.120;2023-06-14T09:02:09;101101.06;;;28.30;38.08
61394;BME280;48555;50.952;-0.120;2023-06-14T09:04:39;101101.38;;;28.47;37.64
61394;BME280;48555;50.952;-0.120;2023-06-14T09:07:06;101098.53;;;28.42;37.84
61394;BME280;48555;50.952;-0.120;2023-06-14T09:09:32;101095.44;;;28.63;37.00
61394;BME280;48555;50.952;-0.120;2023-06-14T09:11:57;101099.59;;;28.84;36.77
61394;BME280;48555;50.952;-0.120;2023-06-14T09:14:24;101103.34;;;28.58;37.39
61394;BME280;48555;50.952;-0.120;2023-06-14T09:16:54;101103.28;;;28.65;37.44
61394;BME280;48555;50.952;-0.120;2023-06-14T09:19:24;101116.47;;;28.91;37.34
61394;BME280;48555;50.952;-0.120;2023-06-14T09:21:50;101104.56;;;29.06;37.30
61394;BME280;48555;50.952;-0.120;2023-06-14T09:24:18;101112.50;;;28.75;36.82
61394;BME280;48555;50.952;-0.120;2023-06-14T09:26:46;101111.25;;;28.78;37.40
61394;BME280;48555;50.952;-0.120;2023-06-14T09:29:12;101114.63;;;28.92;37.17
61394;BME280;48555;50.952;-0.120;2023-06-14T09:31:37;101122.91;;;29.15;37.29
61394;BME280;48555;50.952;-0.120;2023-06-14T09:34:03;101118.63;;;29.26;36.32
61394;BME280;48555;50.952;-0.120;2023-06-14T09:36:32;101114.75;;;29.22;36.14
61394;BME280;48555;50.952;-0.120;2023-06-14T09:39:02;101120.88;;;29.11;35.75
61394;BME280;48555;50.952;-0.120;2023-06-14T09:41:35;101113.22;;;28.89;36.43
61394;BME280;48555;50.952;-0.120;2023-06-14T09:44:03;101117.88;;;28.75;36.61
61394;BME280;48555;50.952;-0.120;2023-06-14T09:46:29;101118.56;;;28.71;37.05
61394;BME280;48555;50.952;-0.120;2023-06-14T09:48:59;101113.22;;;28.64;37.39
61394;BME280;48555;50.952;-0.120;2023-06-14T09:51:26;101114.38;;;28.50;37.58
61394;BME280;48555;50.952;-0.120;2023-06-14T09:53:52;101115.09;;;28.64;37.49
61394;BME280;48555;50.952;-0.120;2023-06-14T09:56:27;101117.06;;;28.75;37.41
61394;BME280;48555;50.952;-0.120;2023-06-14T09:58:56;101118.59;;;28.89;37.50
61394;BME280;48555;50.952;-0.120;2023-06-14T10:01:26;101118.75;;;28.94;37.24
61394;BME280;48555;50.952;-0.120;2023-06-14T10:04:07;101120.50;;;29.07;37.27
61394;BME280;48555;50.952;-0.120;2023-06-14T10:06:37;101123.38;;;29.12;36.47
61394;BME280;48555;50.952;-0.120;2023-06-14T10:09:08;101126.06;;;29.12;36.47
61394;BME280;48555;50.952;-0.120;2023-06-14T10:11:34;101124.25;;;29.06;36.59
61394;BME280;48555;50.952;-0.120;2023-06-14T10:14:02;101116.00;;;29.01;36.38
61394;BME280;48555;50.952;-0.120;2023-06-14T10:16:32;101114.88;;;29.09;36.53
61394;BME280;48555;50.952;-0.120;2023-06-14T10:19:01;101118.34;;;29.16;36.25
61394;BME280;48555;50.952;-0.120;2023-06-14T10:24:15;101111.97;;;29.29;35.40
61394;BME280;48555;50.952;-0.120;2023-06-14T10:26:54;101118.72;;;29.19;34.23
61394;BME280;48555;50.952;-0.120;2023-06-14T10:29:19;101114.31;;;29.25;34.76
61394;BME280;48555;50.952;-0.120;2023-06-14T10:31:46;101119.41;;;29.33;34.67
61394;BME280;48555;50.952;-0.120;2023-06-14T10:34:21;101102.94;;;29.41;34.57
61394;BME280;48555;50.952;-0.120;2023-06-14T10:37:00;101115.56;;;29.59;35.17
61394;BME280;48555;50.952;-0.120;2023-06-14T10:39:27;101112.44;;;29.62;33.79
61394;BME280;48555;50.952;-0.120;2023-06-14T10:41:54;101117.28;;;29.72;34.87
61394;BME280;48555;50.952;-0.120;2023-06-14T10:46:49;101104.34;;;29.62;32.30
61394;BME280;48555;50.952;-0.120;2023-06-14T10:49:18;101112.84;;;29.78;32.68
61394;BME280;48555;50.952;-0.120;2023-06-14T10:51:46;101115.69;;;29.83;32.40
61394;BME280;48555;50.952;-0.120;2023-06-14T10:54:15;101107.47;;;29.78;32.56
61394;BME280;48555;50.952;-0.120;2023-06-14T10:56:51;101113.81;;;29.83;31.65
61394;BME280;48555;50.952;-0.120;2023-06-14T10:59:18;101110.06;;;29.84;32.20
61394;BME280;48555;50.952;-0.120;2023-06-14T11:04:42;101104.75;;;29.78;29.37
61394;BME280;48555;50.952;-0.120;2023-06-14T11:10:26;101107.16;;;29.86;29.60
61394;BME280;48555;50.952;-0.120;2023-06-14T11:12:59;101109.88;;;29.98;30.09
61394;BME280;48555;50.952;-0.120;2023-06-14T11:15:30;101101.34;;;30.01;29.74
61394;BME280;48555;50.952;-0.120;2023-06-14T11:17:57;101102.44;;;30.23;29.82
61394;BME280;48555;50.952;-0.120;2023-06-14T11:20:27;101102.25;;;30.37;28.85
61394;BME280;48555;50.952;-0.120;2023-06-14T11:22:53;101099.91;;;30.40;27.86
61394;BME280;48555;50.952;-0.120;2023-06-14T11:25:19;101095.00;;;30.49;27.92
61394;BME280;48555;50.952;-0.120;2023-06-14T11:27:45;101103.41;;;30.41;27.39
61394;BME280;48555;50.952;-0.120;2023-06-14T11:30:12;101106.59;;;30.49;27.83
61394;BME280;48555;50.952;-0.120;2023-06-14T11:32:38;101093.59;;;30.58;27.35
61394;BME280;48555;50.952;-0.120;2023-06-14T11:35:05;101089.59;;;30.61;24.83
61394;BME280;48555;50.952;-0.120;2023-06-14T11:37:31;101100.25;;;30.32;24.32
61394;BME280;48555;50.952;-0.120;2023-06-14T11:40:01;101105.63;;;30.32;25.71
61394;BME280;48555;50.952;-0.120;2023-06-14T11:42:28;101098.50;;;30.38;25.15
61394;BME280;48555;50.952;-0.120;2023-06-14T11:44:55;101099.78;;;30.35;25.74
61394;BME280;48555;50.952;-0.120;2023-06-14T11:47:21;101086.53;;;30.33;26.12
61394;BME280;48555;50.952;-0.120;2023-06-14T11:49:47;101092.41;;;30.30;27.23
61394;BME280;48555;50.952;-0.120;2023-06-14T11:52:12;101097.22;;;30.40;26.47
61394;BME280;48555;50.952;-0.120;2023-06-14T11:54:38;101088.75;;;30.37;26.30
61394;BME280;48555;50.952;-0.120;2023-06-14T11:57:08;101092.09;;;30.20;26.53
61394;BME280;48555;50.952;-0.120;2023-06-14T11:59:40;101092.31;;;30.07;26.40
61394;BME280;48555;50.952;-0.120;2023-06-14T12:02:06;101087.50;;;30.09;27.71
61394;BME280;48555;50.952;-0.120;2023-06-14T12:04:32;101091.44;;;30.25;28.06
61394;BME280;48555;50.952;-0.120;2023-06-14T12:07:08;101090.63;;;30.24;27.75
61394;BME280;48555;50.952;-0.120;2023-06-14T12:09:40;101082.16;;;30.32;27.40
61394;BME280;48555;50.952;-0.120;2023-06-14T12:12:05;101084.63;;;30.22;27.05
61394;BME280;48555;50.952;-0.120;2023-06-14T12:14:31;101085.53;;;30.16;27.47
61394;BME280;48555;50.952;-0.120;2023-06-14T12:17:06;101079.69;;;30.19;27.56
61394;BME280;48555;50.952;-0.120;2023-06-14T12:19:32;101090.72;;;30.29;27.02
61394;BME280;48555;50.952;-0.120;2023-06-14T12:21:59;101091.81;;;30.52;26.79
61394;BME280;48555;50.952;-0.120;2023-06-14T12:24:28;101087.38;;;30.58;26.53
61394;BME280;48555;50.952;-0.120;2023-06-14T12:26:54;101092.41;;;30.54;27.24
61394;BME280;48555;50.952;-0.120;2023-06-14T12:29:22;101085.00;;;30.61;26.66
61394;BME280;48555;50.952;-0.120;2023-06-14T12:31:47;101084.31;;;30.66;26.69
61394;BME280;48555;50.952;-0.120;2023-06-14T12:34:13;101088.66;;;30.67;26.90
61394;BME280;48555;50.952;-0.120;2023-06-14T12:36:38;101080.91;;;30.70;26.62
61394;BME280;48555;50.952;-0.120;2023-06-14T12:39:09;101086.09;;;30.84;26.60
61394;BME280;48555;50.952;-0.120;2023-06-14T12:41:34;101084.91;;;30.91;27.01
61394;BME280;48555;50.952;-0.120;2023-06-14T12:43:59;101086.09;;;30.84;26.96
61394;BME280;48555;50.952;-0.120;2023-06-14T12:46:30;101095.63;;;30.86;27.10
61394;BME280;48555;50.952;-0.120;2023-06-14T12:48:56;101089.28;;;30.81;27.68
61394;BME280;48555;50.952;-0.120;2023-06-14T12:51:21;101084.47;;;30.83;27.48
61394;BME280;48555;50.952;-0.120;2023-06-14T12:53:47;101095.50;;;30.81;27.09